Time;durP1;ratioP1;P1;durP2;ratioP2;P2;SDS_P1;SDS_P2;PMS_P1;PMS_P2;Temp;Humidity;BMP_temperature;BMP_pressure;BME280_temperature;BME280_humidity;BME280_pressure;Samples;Min_cycle;Max_cycle;Signal;HPM_P1;HPM_P2
2022/08/17 00:01:13;;;;;;;;;;;;;;;;;;5042049;28;19909;-79
2022/08/17 00:03:39;;;;;;;;;;;;;;;;;;5032620;28;20630;-80
2022/08/17 00:06:10;;;;;;;;;;;;;;;;;;5041294;28;19917;-79
2022/08/17 00:08:37;;;;;;;;;;;;;;;;;;5049299;28;19916;-77
2022/08/17 00:11:03;;;;;;;;;;;;;;;;;;5032207;28;19924;-77
2022/08/17 00:13:29;;;;;;;;;;;;;;;;;;5049374;28;19913;-79
2022/08/17 00:15:56;;;;;;;;;;;;;;;;;;5052821;28;19917;-79
2022/08/17 00:18:22;;;;;;;;;;;;;;;;;;5046884;28;19916;-78
2022/08/17 00:20:48;;;;;;;;;;;;;;;;;;5045903;28;19969;-77
2022/08/17 00:23:15;;;;;;;;;;;;;;;;;;5030149;28;19915;-77
2022/08/17 00:25:41;;;;;;;;;;;;;;;;;;5042027;28;19918;-80
2022/08/17 00:28:07;;;;;;;;;;;;;;;;;;5046983;28;19908;-77
2022/08/17 00:30:34;;;;;;;;;;;;;;;;;;5042342;28;19915;-78
2022/08/17 00:33:00;;;;;;;;;;;;;;;;;;5048925;28;19908;-78
2022/08/17 00:35:27;;;;;;;;;;;;;;;;;;5050184;28;19919;-78
2022/08/17 00:37:53;;;;;;;;;;;;;;;;;;5040911;28;19955;-78
2022/08/17 00:40:19;;;;;;;;;;;;;;;;;;5030583;28;19916;-79
2022/08/17 00:42:45;;;;;;;;;;;;;;;;;;5028418;28;19913;-79
2022/08/17 00:45:11;;;;;;;;;;;;;;;;;;5049652;28;19917;-77
2022/08/17 00:47:37;;;;;;;;;;;;;;;;;;5022028;28;19909;-78
2022/08/17 00:50:04;;;;;;;;;;;;;;;;;;5049108;28;19913;-79
2022/08/17 00:52:30;;;;;;;;;;;;;;;;;;5046542;28;19919;-79
2022/08/17 00:54:56;;;;;;;;;;;;;;;;;;5048246;28;19915;-79
2022/08/17 00:57:22;;;;;;;;;;;;;;;;;;5049549;28;19913;-80
2022/08/17 00:59:48;;;;;;;;;;;;;;;;;;5031773;28;20363;-78
2022/08/17 01:02:14;;;;;;;;;;;;;;;;;;5045826;28;19909;-78
2022/08/17 01:04:41;;;;;;;;;;;;;;;;;;5047637;28;20371;-79
2022/08/17 01:07:09;;;;;;;;;;;;;;;;;;5048449;28;19925;-79
2022/08/17 01:09:35;;;;;;;;;;;;;;;;;;5049128;28;19917;-78
2022/08/17 01:12:01;;;;;;;;;;;;;;;;;;5046090;28;19927;-78
2022/08/17 01:14:27;;;;;;;;;;;;;;;;;;5031525;28;19909;-79
2022/08/17 01:16:54;;;;;;;;;;;;;;;;;;5046021;28;19917;-78
2022/08/17 01:19:20;;;;;;;;;;;;;;;;;;5048001;28;19917;-78
2022/08/17 01:21:46;;;;;;;;;;;;;;;;;;5050012;28;19915;-78
2022/08/17 01:24:12;;;;;;;;;;;;;;;;;;5045214;28;20303;-76
2022/08/17 01:26:39;;;;;;;;;;;;;;;;;;5042914;28;19931;-77
2022/08/17 01:29:05;;;;;;;;;;;;;;;;;;5046352;28;19913;-77
2022/08/17 01:31:31;;;;;;;;;;;;;;;;;;5048098;28;19932;-78
2022/08/17 01:33:58;;;;;;;;;;;;;;;;;;5042972;28;19913;-78
2022/08/17 01:36:24;;;;;;;;;;;;;;;;;;5047787;28;19919;-78
2022/08/17 01:38:50;;;;;;;;;;;;;;;;;;5024785;28;20376;-78
2022/08/17 01:41:16;;;;;;;;;;;;;;;;;;5048199;28;20379;-78
2022/08/17 01:43:42;;;;;;;;;;;;;;;;;;5045060;28;20391;-76
2022/08/17 01:46:09;;;;;;;;;;;;;;;;;;5041220;28;20300;-76
2022/08/17 01:48:36;;;;;;;;;;;;;;;;;;5049328;28;20375;-76
2022/08/17 01:51:02;;;;;;;;;;;;;;;;;;5049208;28;20264;-76
2022/08/17 01:53:28;;;;;;;;;;;;;;;;;;5030640;28;19913;-77
2022/08/17 01:55:54;;;;;;;;;;;;;;;;;;5044891;28;20292;-77
2022/08/17 01:58:20;;;;;;;;;;;;;;;;;;5038125;28;19910;-78
2022/08/17 02:00:47;;;;;;;;;;;;;;;;;;5048697;28;19915;-77
2022/08/17 02:03:13;;;;;;;;;;;;;;;;;;5048143;28;19917;-77
2022/08/17 02:05:39;;;;;;;;;;;;;;;;;;5048521;28;20369;-78
2022/08/17 02:08:06;;;;;;;;;;;;;;;;;;5045831;28;20308;-77
2022/08/17 02:10:32;;;;;;;;;;;;;;;;;;5045577;28;20452;-76
2022/08/17 02:12:58;;;;;;;;;;;;;;;;;;5033433;28;20609;-77
2022/08/17 02:15:24;;;;;;;;;;;;;;;;;;5051067;28;19928;-79
2022/08/17 02:17:50;;;;;;;;;;;;;;;;;;5052908;28;19909;-79
2022/08/17 02:20:16;;;;;;;;;;;;;;;;;;5035325;28;19915;-78
2022/08/17 02:22:43;;;;;;;;;;;;;;;;;;5043380;28;19908;-79
2022/08/17 02:25:09;;;;;;;;;;;;;;;;;;5052017;28;20314;-77
2022/08/17 02:27:35;;;;;;;;;;;;;;;;;;5052576;28;19916;-78
2022/08/17 02:30:01;;;;;;;;;;;;;;;;;;5053113;28;19908;-76
2022/08/17 02:32:28;;;;;;;;;;;;;;;;;;5039224;28;19919;-81
2022/08/17 02:34:54;;;;;;;;;;;;;;;;;;5044010;28;19919;-76
2022/08/17 02:37:20;;;;;;;;;;;;;;;;;;5051813;28;19912;-76
2022/08/17 02:39:46;;;;;;;;;;;;;;;;;;5025449;28;20533;-77
2022/08/17 02:42:12;;;;;;;;;;;;;;;;;;5047886;28;19923;-78
2022/08/17 02:44:39;;;;;;;;;;;;;;;;;;5039931;28;19948;-78
2022/08/17 02:47:05;;;;;;;;;;;;;;;;;;5045261;28;19913;-77
2022/08/17 02:49:31;;;;;;;;;;;;;;;;;;5048732;28;19916;-77
2022/08/17 02:51:57;;;;;;;;;;;;;;;;;;5052330;28;19909;-77
2022/08/17 02:54:23;;;;;;;;;;;;;;;;;;5049567;28;20379;-77
2022/08/17 02:56:50;;;;;;;;;;;;;;;;;;5047610;28;19915;-79
2022/08/17 02:59:16;;;;;;;;;;;;;;;;;;5031332;28;19924;-78
2022/08/17 03:01:42;;;;;;;;;;;;;;;;;;5033673;28;20350;-78
2022/08/17 03:04:08;;;;;;;;;;;;;;;;;;5048895;28;19916;-78
2022/08/17 03:06:34;;;;;;;;;;;;;;;;;;5051329;28;19931;-77
2022/08/17 03:09:00;;;;;;;;;;;;;;;;;;5051844;28;19919;-77
2022/08/17 03:11:27;;;;;;;;;;;;;;;;;;5050784;28;20630;-77
2022/08/17 03:13:53;;;;;;;;;;;;;;;;;;5033990;28;19919;-78
2022/08/17 03:16:25;;;;;;;;;;;;;;;;;;5045229;28;19909;-78
2022/08/17 03:18:52;;;;;;;;;;;;;;;;;;5049311;28;19928;-81
2022/08/17 03:21:22;;;;;;;;;;;;;;;;;;5046418;28;19917;-79
2022/08/17 03:23:48;;;;;;;;;;;;;;;;;;5050113;28;20238;-79
2022/08/17 03:26:14;;;;;;;;;;;;;;;;;;5050228;28;19927;-80
2022/08/17 03:28:43;;;;;;;;;;;;;;;;;;5030118;28;19913;-78
2022/08/17 03:31:09;;;;;;;;;;;;;;;;;;5031288;28;19939;-79
2022/08/17 03:33:35;;;;;;;;;;;;;;;;;;5046312;28;19913;-81
2022/08/17 03:36:01;;;;;;;;;;;;;;;;;;5047385;28;19941;-81
2022/08/17 03:38:27;;;;;;;;;;;;;;;;;;5051292;28;20288;-78
2022/08/17 03:40:54;;;;;;;;;;;;;;;;;;5028689;28;19913;-78
2022/08/17 03:43:25;;;;;;;;;;;;;;;;;;5042594;28;20376;-79
2022/08/17 03:56:53;;;;;;;;;;;;;;;;;;5047376;28;19912;-78
2022/08/17 03:59:20;;;;;;;;;;;;;;;;;;5049479;28;19913;-78
2022/08/17 04:01:46;;;;;;;;;;;;;;;;;;5048378;28;19909;-78
2022/08/17 04:04:12;;;;;;;;;;;;;;;;;;5047429;28;19909;-79
2022/08/17 04:06:38;;;;;;;;;;;;;;;;;;5048412;28;19931;-78
2022/08/17 04:09:05;;;;;;;;;;;;;;;;;;5050807;28;19915;-77
2022/08/17 04:11:31;;;;;;;;;;;;;;;;;;5031956;28;19927;-76
2022/08/17 04:13:57;;;;;;;;;;;;;;;;;;5048381;28;19927;-77
2022/08/17 04:16:23;;;;;;;;;;;;;;;;;;5049014;28;19955;-78
2022/08/17 04:18:49;;;;;;;;;;;;;;;;;;5048185;28;19908;-78
2022/08/17 04:21:24;;;;;;;;;;;;;;;;;;5049893;28;19913;-76
2022/08/17 04:23:51;;;;;;;;;;;;;;;;;;5050682;28;19915;-77
2022/08/17 04:26:17;;;;;;;;;;;;;;;;;;5051280;28;20257;-78
2022/08/17 04:28:43;;;;;;;;;;;;;;;;;;5047496;28;19913;-76
2022/08/17 04:31:09;;;;;;;;;;;;;;;;;;5028893;28;19916;-76
2022/08/17 04:33:36;;;;;;;;;;;;;;;;;;5047398;28;19963;-78
2022/08/17 04:36:03;;;;;;;;;;;;;;;;;;5044962;28;20311;-78
2022/08/17 04:38:29;;;;;;;;;;;;;;;;;;5049494;28;19939;-76
2022/08/17 04:43:40;;;;;;;;;;;;;;;;;;5048325;28;19928;-78
2022/08/17 04:46:06;;;;;;;;;;;;;;;;;;5048002;28;20541;-76
2022/08/17 04:48:32;;;;;;;;;;;;;;;;;;5046183;28;20266;-78
2022/08/17 04:50:59;;;;;;;;;;;;;;;;;;5032429;28;19923;-78
2022/08/17 04:53:25;;;;;;;;;;;;;;;;;;5022027;28;19916;-79
2022/08/17 04:55:51;;;;;;;;;;;;;;;;;;5042683;28;19930;-79
2022/08/17 04:58:18;;;;;;;;;;;;;;;;;;5039236;28;19916;-77
2022/08/17 05:00:44;;;;;;;;;;;;;;;;;;5039230;28;19940;-78
2022/08/17 05:03:10;;;;;;;;;;;;;;;;;;5047494;28;19909;-77
2022/08/17 05:05:36;;;;;;;;;;;;;;;;;;5048560;28;19936;-77
2022/08/17 05:08:02;;;;;;;;;;;;;;;;;;5049709;28;19909;-77
2022/08/17 05:10:29;;;;;;;;;;;;;;;;;;5046205;28;19940;-77
2022/08/17 05:12:55;;;;;;;;;;;;;;;;;;5049517;28;19927;-78
2022/08/17 05:15:21;;;;;;;;;;;;;;;;;;5047172;28;19915;-78
2022/08/17 05:17:47;;;;;;;;;;;;;;;;;;5029062;28;19909;-77
2022/08/17 05:20:13;;;;;;;;;;;;;;;;;;5048516;28;19913;-77
2022/08/17 05:22:39;;;;;;;;;;;;;;;;;;5041268;28;20288;-77
2022/08/17 05:25:05;;;;;;;;;;;;;;;;;;5043659;28;19909;-78
2022/08/17 05:27:32;;;;;;;;;;;;;;;;;;5049398;28;19921;-76
2022/08/17 05:29:58;;;;;;;;;;;;;;;;;;5049671;28;19909;-75
2022/08/17 05:32:25;;;;;;;;;;;;;;;;;;5040306;28;19917;-76
2022/08/17 05:34:51;;;;;;;;;;;;;;;;;;5049455;28;20353;-76
2022/08/17 05:37:18;;;;;;;;;;;;;;;;;;5044519;28;20498;-76
2022/08/17 05:39:44;;;;;;;;;;;;;;;;;;5041018;28;20355;-78
2022/08/17 05:42:10;;;;;;;;;;;;;;;;;;5036980;28;19920;-77
2022/08/17 05:44:36;;;;;;;;;;;;;;;;;;5047584;28;19912;-77
2022/08/17 05:47:02;;;;;;;;;;;;;;;;;;5037012;28;19927;-77
2022/08/17 05:49:29;;;;;;;;;;;;;;;;;;5033790;28;19917;-76
2022/08/17 05:51:55;;;;;;;;;;;;;;;;;;5042410;28;20390;-77
2022/08/17 05:54:21;;;;;;;;;;;;;;;;;;5044176;28;19909;-77
2022/08/17 05:56:47;;;;;;;;;;;;;;;;;;5042216;28;19915;-78
2022/08/17 05:59:13;;;;;;;;;;;;;;;;;;5046389;28;19916;-78
2022/08/17 06:01:40;;;;;;;;;;;;;;;;;;5047444;28;19921;-77
2022/08/17 06:04:06;;;;;;;;;;;;;;;;;;5046197;28;20259;-76
2022/08/17 06:06:32;;;;;;;;;;;;;;;;;;5043306;28;19929;-78
2022/08/17 06:08:58;;;;;;;;;;;;;;;;;;5047760;28;19916;-77
2022/08/17 06:11:24;;;;;;;;;;;;;;;;;;5045157;28;19925;-77
2022/08/17 06:13:50;;;;;;;;;;;;;;;;;;5039016;28;19915;-78
2022/08/17 06:16:19;;;;;;;;;;;;;;;;;;5041042;28;19913;-79
2022/08/17 06:18:45;;;;;;;;;;;;;;;;;;5028363;28;19927;-79
2022/08/17 06:21:11;;;;;;;;;;;;;;;;;;5024600;28;19909;-79
2022/08/17 06:23:37;;;;;;;;;;;;;;;;;;5047790;28;19923;-78
2022/08/17 06:26:04;;;;;;;;;;;;;;;;;;5037771;28;19921;-78
2022/08/17 06:28:30;;;;;;;;;;;;;;;;;;5048644;28;19909;-78
2022/08/17 06:30:56;;;;;;;;;;;;;;;;;;5039167;28;19913;-78
2022/08/17 06:33:22;;;;;;;;;;;;;;;;;;5039688;28;20361;-79
2022/08/17 06:35:48;;;;;;;;;;;;;;;;;;5023931;28;19923;-79
2022/08/17 06:38:15;;;;;;;;;;;;;;;;;;5043505;28;20025;-79
2022/08/17 06:40:44;;;;;;;;;;;;;;;;;;5048106;28;19917;-78
2022/08/17 06:43:11;;;;;;;;;;;;;;;;;;5048785;28;20357;-80
2022/08/17 06:45:37;;;;;;;;;;;;;;;;;;5046454;28;19919;-79
2022/08/17 06:48:03;;;;;;;;;;;;;;;;;;5047970;28;19915;-79
2022/08/17 06:50:29;;;;;;;;;;;;;;;;;;5049147;28;19916;-79
2022/08/17 06:52:55;;;;;;;;;;;;;;;;;;5031182;28;19950;-79
2022/08/17 06:55:21;;;;;;;;;;;;;;;;;;5046346;28;20339;-79
2022/08/17 06:57:48;;;;;;;;;;;;;;;;;;5041698;28;20373;-80
2022/08/17 07:00:15;;;;;;;;;;;;;;;;;;5052497;28;19913;-79
2022/08/17 07:02:41;;;;;;;;;;;;;;;;;;5052677;28;19920;-80
2022/08/17 07:05:07;;;;;;;;;;;;;;;;;;5032484;28;19909;-81
2022/08/17 07:10:18;;;;;;;;;;;;;;;;;;5041466;28;20322;-79
2022/08/17 07:12:44;;;;;;;;;;;;;;;;;;5044364;28;19916;-79
2022/08/17 07:15:11;;;;;;;;;;;;;;;;;;5033742;28;19915;-79
2022/08/17 07:17:37;;;;;;;;;;;;;;;;;;5047373;28;19912;-80
2022/08/17 07:20:04;;;;;;;;;;;;;;;;;;5046869;28;19909;-80
2022/08/17 07:22:30;;;;;;;;;;;;;;;;;;5050582;28;19915;-81
2022/08/17 07:25:00;;;;;;;;;;;;;;;;;;5036878;28;19919;-82
2022/08/17 07:27:32;;;;;;;;;;;;;;;;;;5048345;28;19921;-80
2022/08/17 07:29:58;;;;;;;;;;;;;;;;;;5052455;28;19909;-80
2022/08/17 07:32:25;;;;;;;;;;;;;;;;;;5047640;28;20272;-80
2022/08/17 07:34:51;;;;;;;;;;;;;;;;;;5050928;28;20325;-79
2022/08/17 07:37:20;;;;;;;;;;;;;;;;;;5050447;28;19916;-79
2022/08/17 07:39:46;;;;;;;;;;;;;;;;;;5051953;28;20361;-80
2022/08/17 07:42:12;;;;;;;;;;;;;;;;;;5033941;28;20292;-79
2022/08/17 07:44:38;;;;;;;;;;;;;;;;;;5048985;28;19912;-79
2022/08/17 07:49:49;;;;;;;;;;;;;;;;;;5045712;28;19920;-80
2022/08/17 07:52:16;;;;;;;;;;;;;;;;;;5040008;28;19916;-80
2022/08/17 07:54:42;;;;;;;;;;;;;;;;;;5043223;28;20353;-80
2022/08/17 07:57:14;;;;;;;;;;;;;;;;;;5049431;28;20406;-80
2022/08/17 07:59:40;;;;;;;;;;;;;;;;;;5042293;28;19919;-80
2022/08/17 08:02:07;;;;;;;;;;;;;;;;;;5044990;28;19910;-79
2022/08/17 08:04:35;;;;;;;;;;;;;;;;;;5034238;28;19923;-80
2022/08/17 08:07:01;;;;;;;;;;;;;;;;;;5029429;28;20414;-79
2022/08/17 08:09:28;;;;;;;;;;;;;;;;;;5039590;28;19923;-79
2022/08/17 08:11:54;;;;;;;;;;;;;;;;;;5041122;28;19931;-79
2022/08/17 08:14:20;;;;;;;;;;;;;;;;;;5048703;28;20391;-79
2022/08/17 08:16:49;;;;;;;;;;;;;;;;;;5051198;28;19913;-78
2022/08/17 08:19:15;;;;;;;;;;;;;;;;;;5050713;28;20371;-79
2022/08/17 08:21:41;;;;;;;;;;;;;;;;;;5043440;28;20308;-81
2022/08/17 08:24:08;;;;;;;;;;;;;;;;;;5037935;28;19909;-81
2022/08/17 08:26:34;;;;;;;;;;;;;;;;;;5049618;28;19917;-82
2022/08/17 08:29:02;;;;;;;;;;;;;;;;;;5051566;28;19908;-82
2022/08/17 08:31:28;;;;;;;;;;;;;;;;;;5033028;28;19915;-81
2022/08/17 08:33:55;;;;;;;;;;;;;;;;;;5050719;28;20290;-82
2022/08/17 08:36:21;;;;;;;;;;;;;;;;;;5051274;28;19939;-81
2022/08/17 08:38:48;;;;;;;;;;;;;;;;;;5045612;28;19909;-81
2022/08/17 08:41:14;;;;;;;;;;;;;;;;;;5045117;28;19916;-81
2022/08/17 08:43:41;;;;;;;;;;;;;;;;;;5049111;28;19919;-82
2022/08/17 08:46:07;;;;;;;;;;;;;;;;;;5048100;28;19917;-82
2022/08/17 08:48:33;;;;;;;;;;;;;;;;;;5048182;28;19909;-81
2022/08/17 08:50:59;;;;;;;;;;;;;;;;;;5050497;28;19913;-82
2022/08/17 08:53:26;;;;;;;;;;;;;;;;;;5047793;28;19919;-82
2022/08/17 08:55:52;;;;;;;;;;;;;;;;;;5051374;28;19915;-82
2022/08/17 08:58:18;;;;;;;;;;;;;;;;;;5050679;28;19933;-82
2022/08/17 09:00:44;;;;;;;;;;;;;;;;;;5050842;28;19913;-81
2022/08/17 09:03:11;;;;;;;;;;;;;;;;;;5020159;28;19909;-83
2022/08/17 09:05:38;;;;;;;;;;;;;;;;;;5040927;28;19916;-82
2022/08/17 09:08:04;;;;;;;;;;;;;;;;;;5032607;28;19921;-82
2022/08/17 09:10:30;;;;;;;;;;;;;;;;;;5040143;28;19924;-82
2022/08/17 09:12:56;;;;;;;;;;;;;;;;;;5039900;28;19915;-82
2022/08/17 09:15:24;;;;;;;;;;;;;;;;;;5049810;28;19913;-83
2022/08/17 09:17:50;;;;;;;;;;;;;;;;;;5048958;28;19912;-81
2022/08/17 09:20:16;;;;;;;;;;;;;;;;;;5040075;28;19909;-83
2022/08/17 09:22:42;;;;;;;;;;;;;;;;;;5038354;28;20275;-82
2022/08/17 09:25:08;;;;;;;;;;;;;;;;;;5045240;28;19940;-82
2022/08/17 09:27:36;;;;;;;;;;;;;;;;;;5049486;28;19931;-82
2022/08/17 09:30:02;;;;;;;;;;;;;;;;;;5049466;28;19915;-82
2022/08/17 09:32:29;;;;;;;;;;;;;;;;;;5031210;28;20642;-81
2022/08/17 09:34:55;;;;;;;;;;;;;;;;;;5050636;28;19908;-82
2022/08/17 09:37:21;;;;;;;;;;;;;;;;;;5046243;28;19909;-81
2022/08/17 09:39:47;;;;;;;;;;;;;;;;;;5050902;28;19913;-82
2022/08/17 09:42:13;;;;;;;;;;;;;;;;;;5049731;28;19909;-82
2022/08/17 09:44:39;;;;;;;;;;;;;;;;;;5032553;28;19913;-81
2022/08/17 09:47:06;;;;;;;;;;;;;;;;;;5049015;28;19927;-81
2022/08/17 09:49:32;;;;;;;;;;;;;;;;;;5043283;28;19910;-82
2022/08/17 09:51:58;;;;;;;;;;;;;;;;;;5017705;28;19923;-80
2022/08/17 09:54:24;;;;;;;;;;;;;;;;;;5044160;28;19916;-81
2022/08/17 09:56:50;;;;;;;;;;;;;;;;;;5045983;28;19916;-80
2022/08/17 09:59:16;;;;;;;;;;;;;;;;;;5039325;28;19938;-82
2022/08/17 10:01:42;;;;;;;;;;;;;;;;;;5049882;28;19913;-82
2022/08/17 10:04:09;;;;;;;;;;;;;;;;;;5034099;28;19917;-82
2022/08/17 10:06:35;;;;;;;;;;;;;;;;;;5033813;28;20023;-81
2022/08/17 10:09:06;;;;;;;;;;;;;;;;;;5047126;28;19913;-82
2022/08/17 10:14:18;;;;;;;;;;;;;;;;;;5034034;28;19913;-81
2022/08/17 10:16:44;;;;;;;;;;;;;;;;;;5043745;28;19916;-81
2022/08/17 10:19:13;;;;;;;;;;;;;;;;;;5048997;28;20003;-81
2022/08/17 10:27:15;;;;;;;;;;;;;;;;;;5038608;28;20360;-81
2022/08/17 10:29:41;;;;;;;;;;;;;;;;;;5024452;28;19914;-82
2022/08/17 10:32:09;;;;;;;;;;;;;;;;;;5045789;28;19913;-81
2022/08/17 10:34:35;;;;;;;;;;;;;;;;;;5019970;28;19939;-81
2022/08/17 10:37:02;;;;;;;;;;;;;;;;;;5047337;28;19939;-81
2022/08/17 10:39:29;;;;;;;;;;;;;;;;;;5035225;28;20007;-81
2022/08/17 10:41:55;;;;;;;;;;;;;;;;;;5051651;28;19917;-83
2022/08/17 10:44:22;;;;;;;;;;;;;;;;;;5046137;28;19913;-82
2022/08/17 10:46:50;;;;;;;;;;;;;;;;;;5049621;28;19925;-82
2022/08/17 10:49:17;;;;;;;;;;;;;;;;;;5052889;28;20361;-81
2022/08/17 10:51:46;;;;;;;;;;;;;;;;;;5052751;28;20313;-82
2022/08/17 10:54:13;;;;;;;;;;;;;;;;;;5053080;28;19915;-81
2022/08/17 10:56:39;;;;;;;;;;;;;;;;;;5052992;28;19936;-81
2022/08/17 10:59:05;;;;;;;;;;;;;;;;;;5035798;28;20325;-81
2022/08/17 11:01:31;;;;;;;;;;;;;;;;;;5034167;28;19912;-80
2022/08/17 11:03:57;;;;;;;;;;;;;;;;;;5042396;28;19909;-81
2022/08/17 11:06:24;;;;;;;;;;;;;;;;;;5053716;28;19921;-80
2022/08/17 11:08:50;;;;;;;;;;;;;;;;;;5030145;28;19909;-80
2022/08/17 11:11:16;;;;;;;;;;;;;;;;;;5044077;28;19921;-81
2022/08/17 11:13:43;;;;;;;;;;;;;;;;;;5041580;28;19908;-81
2022/08/17 11:16:09;;;;;;;;;;;;;;;;;;5051753;28;20402;-82
2022/08/17 11:18:36;;;;;;;;;;;;;;;;;;5053057;28;19962;-82
2022/08/17 11:21:02;;;;;;;;;;;;;;;;;;5047192;28;19913;-81
2022/08/17 11:23:31;;;;;;;;;;;;;;;;;;5044587;28;19909;-81
2022/08/17 11:25:57;;;;;;;;;;;;;;;;;;5052879;28;19912;-81
2022/08/17 11:28:23;;;;;;;;;;;;;;;;;;5032159;28;19917;-81
2022/08/17 11:30:49;;;;;;;;;;;;;;;;;;5046256;28;19913;-82
2022/08/17 11:33:16;;;;;;;;;;;;;;;;;;5038029;28;19909;-82
2022/08/17 11:35:42;;;;;;;;;;;;;;;;;;5050818;28;19915;-82
2022/08/17 11:38:08;;;;;;;;;;;;;;;;;;5051881;28;19909;-82
2022/08/17 11:40:37;;;;;;;;;;;;;;;;;;5047125;28;19921;-81
2022/08/17 11:43:03;;;;;;;;;;;;;;;;;;5053112;28;19909;-81
2022/08/17 11:45:30;;;;;;;;;;;;;;;;;;5040384;28;20836;-81
2022/08/17 11:53:26;;;;;;;;;;;;;;;;;;5048063;28;19909;-81
2022/08/17 11:55:52;;;;;;;;;;;;;;;;;;5046407;28;19916;-82
2022/08/17 11:58:19;;;;;;;;;;;;;;;;;;5045035;28;19918;-82
2022/08/17 12:00:45;;;;;;;;;;;;;;;;;;5050000;28;20277;-82
2022/08/17 12:03:11;;;;;;;;;;;;;;;;;;5030339;28;19919;-81
2022/08/17 12:05:37;;;;;;;;;;;;;;;;;;5033356;28;19909;-80
2022/08/17 12:08:04;;;;;;;;;;;;;;;;;;5046974;28;20369;-81
2022/08/17 12:10:30;;;;;;;;;;;;;;;;;;5047328;28;19921;-81
2022/08/17 12:12:56;;;;;;;;;;;;;;;;;;5044119;28;19913;-82
2022/08/17 12:15:23;;;;;;;;;;;;;;;;;;5049013;28;19916;-80
2022/08/17 12:17:49;;;;;;;;;;;;;;;;;;5050790;28;19919;-80
2022/08/17 12:20:16;;;;;;;;;;;;;;;;;;5050192;28;19913;-81
2022/08/17 12:22:42;;;;;;;;;;;;;;;;;;5050328;28;19943;-82
2022/08/17 12:25:09;;;;;;;;;;;;;;;;;;5045168;28;19909;-80
2022/08/17 12:27:35;;;;;;;;;;;;;;;;;;5049981;28;20287;-81
2022/08/17 12:30:01;;;;;;;;;;;;;;;;;;5043811;28;19917;-79
2022/08/17 12:32:28;;;;;;;;;;;;;;;;;;5046843;28;19909;-82
2022/08/17 12:34:54;;;;;;;;;;;;;;;;;;5044991;28;19920;-81
2022/08/17 12:37:20;;;;;;;;;;;;;;;;;;5022372;28;19909;-81
2022/08/17 12:39:47;;;;;;;;;;;;;;;;;;5049288;28;19915;-81
2022/08/17 12:42:13;;;;;;;;;;;;;;;;;;5048922;28;19913;-80
2022/08/17 12:44:39;;;;;;;;;;;;;;;;;;5049267;28;20532;-80
2022/08/17 12:47:08;;;;;;;;;;;;;;;;;;5049888;28;20307;-81
2022/08/17 12:49:34;;;;;;;;;;;;;;;;;;5049255;28;19913;-81
2022/08/17 12:52:00;;;;;;;;;;;;;;;;;;5048705;28;19919;-81
2022/08/17 12:54:26;;;;;;;;;;;;;;;;;;5052320;28;19939;-82
2022/08/17 12:56:53;;;;;;;;;;;;;;;;;;5041999;28;19909;-81
2022/08/17 12:59:19;;;;;;;;;;;;;;;;;;5045707;28;20058;-81
2022/08/17 13:01:45;;;;;;;;;;;;;;;;;;5046778;28;19916;-81
2022/08/17 13:04:12;;;;;;;;;;;;;;;;;;5047399;28;19917;-82
2022/08/17 13:06:39;;;;;;;;;;;;;;;;;;5047871;28;20060;-81
2022/08/17 13:09:05;;;;;;;;;;;;;;;;;;5046506;28;21016;-81
2022/08/17 13:11:31;;;;;;;;;;;;;;;;;;5040793;28;19920;-81
2022/08/17 13:13:57;;;;;;;;;;;;;;;;;;5028714;28;19919;-81
2022/08/17 13:16:23;;;;;;;;;;;;;;;;;;5048634;28;19912;-82
2022/08/17 13:18:49;;;;;;;;;;;;;;;;;;5024469;28;20487;-80
2022/08/17 13:21:17;;;;;;;;;;;;;;;;;;5048188;28;19935;-81
2022/08/17 13:23:45;;;;;;;;;;;;;;;;;;5045197;28;20540;-79
2022/08/17 13:26:11;;;;;;;;;;;;;;;;;;5046523;28;19913;-79
2022/08/17 13:28:37;;;;;;;;;;;;;;;;;;5047284;28;20276;-80
2022/08/17 13:31:03;;;;;;;;;;;;;;;;;;5044975;28;19909;-81
2022/08/17 13:33:30;;;;;;;;;;;;;;;;;;5047739;28;19953;-79
2022/08/17 13:35:56;;;;;;;;;;;;;;;;;;5047146;28;19958;-79
2022/08/17 13:38:23;;;;;;;;;;;;;;;;;;5048826;28;19921;-80
2022/08/17 13:40:49;;;;;;;;;;;;;;;;;;5048371;28;19913;-79
2022/08/17 13:43:15;;;;;;;;;;;;;;;;;;5043325;28;19909;-79
2022/08/17 13:45:42;;;;;;;;;;;;;;;;;;5047213;28;20022;-80
2022/08/17 13:48:08;;;;;;;;;;;;;;;;;;5048088;28;19917;-80
2022/08/17 13:50:34;;;;;;;;;;;;;;;;;;5047911;28;19917;-80
2022/08/17 13:53:00;;;;;;;;;;;;;;;;;;5044886;28;19945;-79
2022/08/17 13:55:26;;;;;;;;;;;;;;;;;;5049402;28;19916;-80
2022/08/17 13:57:53;;;;;;;;;;;;;;;;;;5046694;28;19919;-79
2022/08/17 14:00:19;;;;;;;;;;;;;;;;;;5045953;28;19920;-80
2022/08/17 14:02:45;;;;;;;;;;;;;;;;;;5046039;28;19916;-81
2022/08/17 14:05:11;;;;;;;;;;;;;;;;;;5046227;28;20248;-80
2022/08/17 14:07:37;;;;;;;;;;;;;;;;;;5049565;28;19961;-80
2022/08/17 14:10:04;;;;;;;;;;;;;;;;;;5030044;28;20303;-80
2022/08/17 14:12:30;;;;;;;;;;;;;;;;;;5053234;28;19922;-79
2022/08/17 14:14:57;;;;;;;;;;;;;;;;;;5053269;28;19928;-79
2022/08/17 14:17:23;;;;;;;;;;;;;;;;;;5032128;28;19916;-80
2022/08/17 14:19:49;;;;;;;;;;;;;;;;;;5050929;28;19939;-79
2022/08/17 14:22:16;;;;;;;;;;;;;;;;;;5041720;28;19927;-79
2022/08/17 14:24:42;;;;;;;;;;;;;;;;;;5046767;28;19913;-80
2022/08/17 14:27:08;;;;;;;;;;;;;;;;;;5030175;28;19917;-80
2022/08/17 14:29:35;;;;;;;;;;;;;;;;;;5049543;28;19916;-79
2022/08/17 14:32:01;;;;;;;;;;;;;;;;;;5052862;28;19915;-79
2022/08/17 14:34:28;;;;;;;;;;;;;;;;;;5048519;28;19909;-79
2022/08/17 14:36:55;;;;;;;;;;;;;;;;;;5052489;28;19909;-80
2022/08/17 14:39:21;;;;;;;;;;;;;;;;;;5050162;28;20395;-80
2022/08/17 14:41:48;;;;;;;;;;;;;;;;;;5052445;28;19913;-78
2022/08/17 14:44:14;;;;;;;;;;;;;;;;;;5052743;28;20448;-79
2022/08/17 14:46:40;;;;;;;;;;;;;;;;;;5026463;28;19923;-79
2022/08/17 14:49:06;;;;;;;;;;;;;;;;;;5042274;28;19920;-80
2022/08/17 14:51:32;;;;;;;;;;;;;;;;;;5045496;28;19913;-80
2022/08/17 14:53:58;;;;;;;;;;;;;;;;;;5052337;28;19908;-80
2022/08/17 14:56:25;;;;;;;;;;;;;;;;;;5046863;28;19939;-80
2022/08/17 14:58:51;;;;;;;;;;;;;;;;;;5032601;28;20261;-79
2022/08/17 15:01:17;;;;;;;;;;;;;;;;;;5050389;28;19960;-80
2022/08/17 15:03:43;;;;;;;;;;;;;;;;;;5052394;28;20252;-79
2022/08/17 15:06:10;;;;;;;;;;;;;;;;;;5051132;28;19919;-79
2022/08/17 15:08:36;;;;;;;;;;;;;;;;;;5046503;28;19923;-80
2022/08/17 15:11:02;;;;;;;;;;;;;;;;;;5047707;28;19929;-79
2022/08/17 15:13:29;;;;;;;;;;;;;;;;;;5046457;28;19917;-79
2022/08/17 15:15:55;;;;;;;;;;;;;;;;;;5049654;28;19915;-79
2022/08/17 15:18:21;;;;;;;;;;;;;;;;;;5033317;28;20265;-80
2022/08/17 15:20:48;;;;;;;;;;;;;;;;;;5023260;28;20028;-79
2022/08/17 15:23:14;;;;;;;;;;;;;;;;;;5050616;28;19923;-79
2022/08/17 15:25:40;;;;;;;;;;;;;;;;;;5045978;28;19913;-80
2022/08/17 15:28:07;;;;;;;;;;;;;;;;;;5049978;28;19917;-80
2022/08/17 15:30:34;;;;;;;;;;;;;;;;;;5048141;28;19913;-79
2022/08/17 15:33:03;;;;;;;;;;;;;;;;;;5052814;28;19913;-80
2022/08/17 15:35:29;;;;;;;;;;;;;;;;;;5024927;28;19912;-80
2022/08/17 15:37:55;;;;;;;;;;;;;;;;;;5051833;28;19915;-80
2022/08/17 15:40:21;;;;;;;;;;;;;;;;;;5046647;28;19909;-80
2022/08/17 15:42:47;;;;;;;;;;;;;;;;;;5052077;28;19919;-80
2022/08/17 15:45:15;;;;;;;;;;;;;;;;;;5040762;28;20316;-80
2022/08/17 15:47:42;;;;;;;;;;;;;;;;;;5051638;28;19921;-80
2022/08/17 15:50:08;;;;;;;;;;;;;;;;;;5051185;28;20371;-81
2022/08/17 15:52:39;;;;;;;;;;;;;;;;;;5051811;28;19919;-80
2022/08/17 15:55:05;;;;;;;;;;;;;;;;;;5047856;28;19919;-80
2022/08/17 15:57:32;;;;;;;;;;;;;;;;;;5049443;28;20304;-81
2022/08/17 15:59:58;;;;;;;;;;;;;;;;;;5051562;28;19935;-80
2022/08/17 16:02:25;;;;;;;;;;;;;;;;;;5046246;28;19920;-80
2022/08/17 16:04:51;;;;;;;;;;;;;;;;;;5047255;28;19919;-80
2022/08/17 16:07:17;;;;;;;;;;;;;;;;;;5047066;28;19921;-80
2022/08/17 16:09:43;;;;;;;;;;;;;;;;;;5048453;28;19923;-80
2022/08/17 16:12:09;;;;;;;;;;;;;;;;;;5047606;28;19924;-80
2022/08/17 16:14:36;;;;;;;;;;;;;;;;;;5049574;28;20558;-81
2022/08/17 16:17:02;;;;;;;;;;;;;;;;;;5045791;28;19913;-81
2022/08/17 16:19:28;;;;;;;;;;;;;;;;;;5046493;28;19943;-81
2022/08/17 16:21:54;;;;;;;;;;;;;;;;;;5048444;28;19921;-80
2022/08/17 16:24:20;;;;;;;;;;;;;;;;;;5046379;28;19946;-82
2022/08/17 16:26:46;;;;;;;;;;;;;;;;;;5047209;28;19921;-81
2022/08/17 16:29:13;;;;;;;;;;;;;;;;;;5046656;28;20284;-81
2022/08/17 16:31:40;;;;;;;;;;;;;;;;;;5030329;28;19917;-80
2022/08/17 16:34:06;;;;;;;;;;;;;;;;;;5028431;28;19919;-79
2022/08/17 16:36:32;;;;;;;;;;;;;;;;;;5048900;28;19927;-80
2022/08/17 16:39:00;;;;;;;;;;;;;;;;;;5045835;28;19924;-81
2022/08/17 16:41:44;;;;;;;;;;;;;;;;;;5046203;28;19968;-81
2022/08/17 16:44:10;;;;;;;;;;;;;;;;;;5047665;28;19920;-81
2022/08/17 16:46:39;;;;;;;;;;;;;;;;;;5031120;28;19936;-82
2022/08/17 16:49:05;;;;;;;;;;;;;;;;;;5045011;28;19920;-82
2022/08/17 16:51:31;;;;;;;;;;;;;;;;;;5046474;28;19913;-80
2022/08/17 16:53:57;;;;;;;;;;;;;;;;;;5046261;28;19924;-81
2022/08/17 16:56:24;;;;;;;;;;;;;;;;;;5048123;28;20226;-81
2022/08/17 16:58:51;;;;;;;;;;;;;;;;;;5028677;28;19920;-81
2022/08/17 17:01:17;;;;;;;;;;;;;;;;;;5044957;28;19922;-81
2022/08/17 17:03:43;;;;;;;;;;;;;;;;;;5046159;28;19919;-80
2022/08/17 17:06:12;;;;;;;;;;;;;;;;;;5048069;28;20090;-81
2022/08/17 17:08:42;;;;;;;;;;;;;;;;;;5048852;28;19929;-79
2022/08/17 17:11:08;;;;;;;;;;;;;;;;;;5048078;28;19924;-80
2022/08/17 17:13:34;;;;;;;;;;;;;;;;;;5028113;28;19924;-80